Time;durP1;ratioP1;P1;durP2;ratioP2;P2;SDS_P1;SDS_P2;PMS_P1;PMS_P2;Temp;Humidity;BMP_temperature;BMP_pressure;BME280_temperature;BME280_humidity;BME280_pressure;Samples;Min_cycle;Max_cycle;Signal;HPM_P1;HPM_P2
2021/08/14 00:02:07;;;;;;;16.88;5.90;;;;;;;16.17;77.64;102206.97;5114229;28;20106;-36
2021/08/14 00:04:32;;;;;;;;;;;;;;;16.40;74.79;102197.97;5114966;28;20016;-36
2021/08/14 00:06:57;;;;;;;11.13;4.87;;;;;;;16.18;77.13;102196.88;5114062;28;19968;-36
2021/08/14 00:09:23;;;;;;;13.82;5.47;;;;;;;16.06;77.71;102185.13;5113822;28;20265;-36
2021/08/14 00:11:48;;;;;;;;;;;;;;;16.31;74.92;102196.66;5114178;28;20026;-36
2021/08/14 00:14:13;;;;;;;10.57;4.57;;;;;;;16.09;77.35;102193.66;5113950;28;19908;-36
2021/08/14 00:16:39;;;;;;;12.32;4.93;;;;;;;15.99;77.98;102185.22;5112840;28;20253;-36
2021/08/14 00:19:04;;;;;;;15.10;6.05;;;;;;;16.00;77.76;102184.16;5113323;28;20023;-36
2021/08/14 00:21:31;;;;;;;14.88;6.35;;;;;;;16.05;78.23;102188.91;5114123;28;20024;-36
2021/08/14 00:23:56;;;;;;;15.07;6.15;;;;;;;15.87;78.58;102171.56;5113385;28;20416;-36
2021/08/14 00:26:21;;;;;;;12.03;5.93;;;;;;;15.93;77.80;102187.00;5113365;28;20130;-36
2021/08/14 00:28:46;;;;;;;;;;;;;;;16.20;75.69;102194.75;5114292;28;20038;-36
2021/08/14 00:31:12;;;;;;;13.03;5.97;;;;;;;15.94;78.03;102182.38;5113712;28;19958;-36
2021/08/14 00:33:37;;;;;;;18.03;6.23;;;;;;;15.94;78.25;102182.38;5113938;28;20264;-36
2021/08/14 00:36:02;;;;;;;;;;;;;;;16.11;75.93;102179.81;5112926;28;20016;-36
2021/08/14 00:38:28;;;;;;;12.93;6.20;;;;;;;15.99;78.35;102185.22;5113476;28;19910;-36
2021/08/14 00:40:53;;;;;;;;;;;;;;;16.13;75.81;102186.69;5114386;28;20389;-36
2021/08/14 00:43:18;;;;;;;15.07;6.30;;;;;;;15.81;78.93;102171.66;5113113;28;19957;-36
2021/08/14 00:45:45;;;;;;;;;;;;;;;16.08;75.90;102185.72;5114093;28;20119;-36
2021/08/14 00:48:10;;;;;;;13.68;6.25;;;;;;;15.85;78.91;102175.59;5113349;28;19907;-36
2021/08/14 00:50:37;;;;;;;11.73;5.63;;;;;;;15.75;78.77;102165.25;5113703;28;20426;-36
2021/08/14 00:53:03;;;;;;;13.00;6.00;;;;;;;15.66;79.00;102156.59;5113407;28;20129;-36
2021/08/14 00:55:28;;;;;;;11.88;6.07;;;;;;;15.75;79.24;102184.34;5113557;28;20024;-36
2021/08/14 00:57:53;;;;;;;13.77;6.45;;;;;;;15.64;79.28;102172.34;5113287;28;20030;-36
2021/08/14 01:00:19;;;;;;;15.27;6.13;;;;;;;15.66;79.11;102177.56;5113052;28;20420;-36
2021/08/14 01:02:46;;;;;;;16.05;6.07;;;;;;;15.63;79.63;102183.47;5113420;28;20020;-36
2021/08/14 01:05:12;;;;;;;20.25;6.60;;;;;;;15.57;79.78;102181.66;5113368;28;20355;-36
2021/08/14 01:07:38;;;;;;;;;;;;;;;15.78;77.54;102185.78;5114359;28;20028;-36
2021/08/14 01:10:04;;;;;;;13.07;6.18;;;;;;;15.61;79.85;102183.66;5113385;28;19957;-36
2021/08/14 01:12:29;;;;;;;16.20;6.68;;;;;;;15.56;79.94;102178.06;5112734;28;20375;-36
2021/08/14 01:14:55;;;;;;;17.70;6.57;;;;;;;15.55;80.19;102184.59;5113767;28;20023;-36
2021/08/14 01:17:21;;;;;;;13.70;6.70;;;;;;;15.49;80.18;102177.34;5113331;28;20395;-36
2021/08/14 01:19:47;;;;;;;16.15;6.82;;;;;;;15.51;80.36;102194.31;5113658;28;20261;-36
2021/08/14 01:22:13;;;;;;;;;;;;;;;15.68;78.79;102178.16;5113722;28;20149;-36
2021/08/14 01:24:38;;;;;;;17.17;6.07;;;;;;;15.44;79.57;102180.78;5113316;28;19917;-36
2021/08/14 01:27:08;;;;;;;12.23;6.20;;;;;;;15.36;80.96;102185.72;5112984;28;20439;-34
2021/08/14 01:29:37;;;;;;;18.33;6.57;;;;;;;15.34;80.95;102177.78;5116341;28;20038;-34
2021/08/14 01:32:04;;;;;;;16.33;6.60;;;;;;;15.29;81.26;102174.09;5117650;28;20050;-34
2021/08/14 01:34:30;;;;;;;19.80;6.80;;;;;;;15.42;81.33;102179.31;5117021;28;20022;-34
2021/08/14 01:36:55;;;;;;;;;;;;;;;15.57;78.67;102177.03;5117471;28;20035;-34
2021/08/14 01:39:21;;;;;;;20.10;6.85;;;;;;;15.33;80.51;102137.13;5117080;28;19931;-34
2021/08/14 01:42:00;;;;;;;;;;;;;;;15.66;78.42;102181.13;5117343;28;20028;-34
2021/08/14 01:44:28;;;;;;;12.23;5.80;;;;;;;15.44;80.52;102174.50;5116382;28;20002;-34
2021/08/14 01:46:53;;;;;;;17.77;6.47;;;;;;;15.38;81.04;102173.53;5116866;28;20400;-34
2021/08/14 01:49:19;;;;;;;12.93;5.72;;;;;;;15.30;80.72;102176.56;5116459;28;20085;-34
2021/08/14 01:51:45;;;;;;;;;;;;;;;15.51;78.62;102180.66;5117343;28;20363;-34
2021/08/14 01:54:10;;;;;;;14.05;6.22;;;;;;;15.28;80.89;102175.16;5116319;28;19910;-34
2021/08/14 01:56:36;;;;;;;14.52;6.50;;;;;;;15.08;81.56;102149.00;5116504;28;20084;-34
2021/08/14 01:59:01;;;;;;;16.88;6.97;;;;;;;15.25;81.70;102176.41;5116259;28;20015;-34
2021/08/14 02:01:27;;;;;;;13.85;6.55;;;;;;;15.20;82.00;102160.75;5116709;28;20406;-34
2021/08/14 02:03:53;;;;;;;;;;;;;;;15.39;79.65;102158.00;5116546;28;20019;-34
2021/08/14 02:06:21;;;;;;;12.07;6.07;;;;;;;15.01;81.66;102136.50;5116374;28;20350;-34
2021/08/14 02:08:46;;;;;;;18.40;6.97;;;;;;;15.10;81.71;102155.03;5116515;27;20300;-34
2021/08/14 02:11:14;;;;;;;12.85;6.45;;;;;;;15.00;81.59;102143.84;5116269;27;20023;-34
2021/08/14 02:13:43;;;;;;;14.00;6.53;;;;;;;15.12;81.54;102158.34;5115635;28;20522;-34
2021/08/14 02:16:09;;;;;;;19.00;7.47;;;;;;;15.07;82.05;102158.19;5116248;28;20071;-34
2021/08/14 02:18:35;;;;;;;13.15;6.57;;;;;;;14.96;82.50;102144.53;5116035;28;20028;-34
2021/08/14 02:21:01;;;;;;;13.73;6.72;;;;;;;15.01;82.76;102150.94;5115859;28;20155;-34
2021/08/14 02:23:27;;;;;;;14.55;6.82;;;;;;;14.96;82.33;102136.34;5115724;28;20371;-34
2021/08/14 02:25:52;;;;;;;;;;;;;;;15.24;80.61;102150.25;5116300;28;20023;-34
2021/08/14 02:28:17;;;;;;;16.92;6.50;;;;;;;15.07;81.76;102138.31;5115619;28;19911;-34
2021/08/14 02:30:42;;;;;;;15.70;7.57;;;;;;;14.96;82.51;102125.47;5115699;28;20055;-34
2021/08/14 02:33:08;;;;;;;22.43;7.77;;;;;;;15.04;82.37;102136.06;5115794;28;20717;-34
2021/08/14 02:35:33;;;;;;;15.27;6.82;;;;;;;15.04;82.25;102133.34;5115729;28;20027;-34
2021/08/14 02:37:58;;;;;;;15.60;7.10;;;;;;;15.03;81.79;102137.94;5115573;28;20020;-34
2021/08/14 02:40:24;;;;;;;15.70;7.00;;;;;;;14.87;81.93;102119.50;5114717;28;20732;-34
2021/08/14 02:42:49;;;;;;;16.20;6.53;;;;;;;15.02;81.92;102136.25;5115666;27;20025;-34
2021/08/14 02:45:14;;;;;;;11.87;6.40;;;;;;;14.88;82.14;102119.28;5115771;28;20280;-34
2021/08/14 02:47:40;;;;;;;14.30;6.50;;;;;;;14.86;82.17;102124.09;5114757;28;20269;-35
2021/08/14 02:50:07;;;;;;;14.45;7.35;;;;;;;14.90;81.90;102138.09;5115424;28;20051;-36
2021/08/14 02:52:32;;;;;;;17.88;7.32;;;;;;;14.89;81.98;102128.28;5115714;28;20094;-35
2021/08/14 02:54:58;;;;;;;17.15;6.50;;;;;;;14.85;81.75;102127.91;5115291;27;20415;-35
2021/08/14 02:57:23;;;;;;;18.95;7.38;;;;;;;14.96;81.74;102129.00;5115355;28;20353;-35
2021/08/14 02:59:48;;;;;;;16.35;7.07;;;;;;;14.84;82.32;102133.59;5115157;28;20027;-35
2021/08/14 03:02:14;;;;;;;14.52;6.78;;;;;;;14.79;82.17;102117.94;5115634;28;20024;-35
2021/08/14 03:04:39;;;;;;;14.67;8.00;;;;;;;14.78;82.07;102120.84;5115260;28;20396;-35
2021/08/14 03:07:04;;;;;;;16.40;6.97;;;;;;;14.73;82.22;102123.44;5113803;27;20829;-35
2021/08/14 03:09:30;;;;;;;16.38;6.65;;;;;;;14.70;82.38;102121.19;5114972;28;20034;-36
2021/08/14 03:11:55;;;;;;;13.47;7.03;;;;;;;14.78;82.39;102129.03;5115224;28;20023;-35
2021/08/14 03:14:20;;;;;;;16.60;6.13;;;;;;;14.68;81.85;102119.50;5114673;28;20745;-35
2021/08/14 03:16:46;;;;;;;14.33;6.97;;;;;;;14.66;82.34;102131.69;5115518;28;20035;-35
2021/08/14 03:19:11;;;;;;;12.85;6.50;;;;;;;14.78;82.25;102129.84;5114407;28;20278;-36
2021/08/14 03:21:36;;;;;;;18.50;7.73;;;;;;;14.66;82.27;102127.06;5115418;28;20035;-35
2021/08/14 03:24:02;;;;;;;20.40;8.13;;;;;;;14.73;81.88;102118.81;5114563;28;20415;-35
2021/08/14 03:26:27;;;;;;;14.57;6.82;;;;;;;14.54;82.25;102112.56;5115244;28;20108;-35
2021/08/14 03:28:53;;;;;;;15.67;6.93;;;;;;;14.61;82.49;102112.47;5114764;28;20074;-35
2021/08/14 03:31:21;;;;;;;12.43;6.75;;;;;;;14.59;81.68;102114.56;5115062;28;20732;-35
2021/08/14 03:33:49;;;;;;;12.60;6.00;;;;;;;14.61;82.00;102121.47;5114351;28;20019;-35
2021/08/14 03:36:15;;;;;;;15.38;6.50;;;;;;;14.68;81.81;102111.31;5114607;28;20024;-35
2021/08/14 03:38:41;;;;;;;16.02;7.45;;;;;;;14.65;81.72;102108.25;5114225;28;20026;-35
2021/08/14 03:41:07;;;;;;;11.50;6.40;;;;;;;14.58;81.82;102113.75;5114185;28;20480;-35
2021/08/14 03:43:32;;;;;;;16.90;7.15;;;;;;;14.49;81.75;102092.50;5114199;28;20027;-35
2021/08/14 03:45:58;;;;;;;13.48;6.35;;;;;;;14.66;81.40;102108.00;5114287;28;20031;-35
2021/08/14 03:48:23;;;;;;;19.33;7.90;;;;;;;14.54;81.76;102115.28;5113844;28;20016;-35
2021/08/14 03:50:48;;;;;;;12.57;6.20;;;;;;;14.40;81.53;102100.13;5113901;28;20467;-35
2021/08/14 03:53:14;;;;;;;18.38;6.70;;;;;;;14.58;81.57;102124.63;5113952;28;20268;-35
2021/08/14 03:55:39;;;;;;;14.02;6.40;;;;;;;14.53;81.72;102129.09;5113968;28;20028;-35
2021/08/14 03:58:04;;;;;;;14.85;6.22;;;;;;;14.48;81.40;102137.13;5114410;28;20030;-35
2021/08/14 04:00:30;;;;;;;16.10;6.28;;;;;;;14.62;81.26;102130.47;5112754;28;20024;-35
2021/08/14 04:02:55;;;;;;;14.47;6.93;;;;;;;14.51;81.11;102134.78;5113822;28;20103;-35
2021/08/14 04:05:21;;;;;;;14.50;6.90;;;;;;;14.57;80.98;102133.88;5114440;28;20277;-35
2021/08/14 04:07:46;;;;;;;15.02;6.65;;;;;;;14.45;81.22;102137.56;5113675;28;20024;-35
2021/08/14 04:10:11;;;;;;;14.50;6.73;;;;;;;14.32;81.53;102125.72;5113705;28;20097;-35
2021/08/14 04:12:37;;;;;;;12.60;6.88;;;;;;;14.35;81.17;102129.91;5113335;28;20753;-35
2021/08/14 04:15:06;;;;;;;14.48;6.82;;;;;;;14.24;82.11;102126.00;5113627;28;20023;-35
2021/08/14 04:17:32;;;;;;;13.18;5.95;;;;;;;14.24;82.34;102133.34;5113611;28;20037;-35
2021/08/14 04:19:58;;;;;;;14.90;7.07;;;;;;;14.08;82.21;102115.72;5113568;28;20033;-35
2021/08/14 04:22:24;;;;;;;14.32;6.57;;;;;;;14.09;81.91;102120.91;5113322;28;20020;-35
2021/08/14 04:24:49;;;;;;;16.10;6.38;;;;;;;14.21;81.52;102125.66;5113843;28;20316;-35
2021/08/14 04:27:14;;;;;;;17.90;6.77;;;;;;;14.21;81.79;102131.09;5113843;28;20020;-35
2021/08/14 04:29:40;;;;;;;11.60;5.60;;;;;;;14.20;81.67;102143.88;5113936;28;20268;-35
2021/08/14 04:32:06;;;;;;;14.43;6.47;;;;;;;14.20;82.09;102130.25;5114301;28;20075;-35
2021/08/14 04:34:31;;;;;;;;;;;;;;;14.36;80.67;102134.28;5113430;28;20075;-35
2021/08/14 04:36:56;;;;;;;18.27;6.40;;;;;;;14.08;81.95;102118.44;5113328;28;20387;-35
2021/08/14 04:39:21;;;;;;;17.73;6.23;;;;;;;14.20;81.79;102127.53;5113309;28;20341;-35
2021/08/14 04:41:47;;;;;;;13.53;6.70;;;;;;;14.07;81.16;102125.75;5113710;28;20355;-35
2021/08/14 04:44:12;;;;;;;14.30;6.22;;;;;;;14.00;82.10;102116.81;5113192;28;20065;-35
2021/08/14 04:46:38;;;;;;;18.40;6.75;;;;;;;14.07;82.47;102117.59;5113924;28;20059;-35
2021/08/14 04:49:03;;;;;;;12.23;6.25;;;;;;;13.98;81.80;102115.38;5113258;28;20050;-35
2021/08/14 04:51:28;;;;;;;17.50;6.28;;;;;;;14.13;81.87;102121.31;5113039;28;20032;-35
2021/08/14 04:53:54;;;;;;;18.10;6.93;;;;;;;14.08;82.20;102119.25;5113378;28;20030;-35
2021/08/14 04:56:19;;;;;;;11.57;6.07;;;;;;;14.14;82.24;102117.53;5113341;28;20548;-35
2021/08/14 04:58:44;;;;;;;12.90;6.07;;;;;;;14.13;81.00;102121.31;5113185;28;20289;-35
2021/08/14 05:01:10;;;;;;;14.13;5.67;;;;;;;14.08;82.23;102110.28;5113730;28;20016;-35
2021/08/14 05:03:35;;;;;;;14.77;6.37;;;;;;;14.09;81.93;102120.91;5115260;28;20023;-35
2021/08/14 05:06:00;;;;;;;15.13;6.27;;;;;;;14.17;82.05;102117.09;5117460;28;20269;-35
2021/08/14 05:08:26;;;;;;;15.52;6.30;;;;;;;14.20;81.82;102121.25;5117216;28;20103;-35
2021/08/14 05:10:51;;;;;;;13.18;6.05;;;;;;;14.30;81.73;102121.56;5116907;28;20047;-35
2021/08/14 05:13:17;;;;;;;13.47;5.70;;;;;;;14.28;81.51;102119.06;5117699;28;20031;-35
2021/08/14 05:15:42;;;;;;;13.77;6.20;;;;;;;14.40;80.83;102130.06;5117664;28;20258;-35
2021/08/14 05:18:08;;;;;;;19.08;6.20;;;;;;;14.49;80.93;102125.16;5117785;28;20050;-35
2021/08/14 05:20:33;;;;;;;15.70;5.85;;;;;;;14.57;80.53;102122.97;5117561;28;20027;-35
2021/08/14 05:22:58;;;;;;;14.77;5.60;;;;;;;14.49;80.43;102104.22;5117062;28;20073;-35
2021/08/14 05:25:26;;;;;;;15.43;6.25;;;;;;;14.55;79.91;102119.66;5117359;28;20796;-35
2021/08/14 05:27:51;;;;;;;15.65;6.20;;;;;;;14.73;79.85;102126.16;5116830;28;20024;-35
2021/08/14 05:30:16;;;;;;;17.03;6.87;;;;;;;14.79;79.68;102128.00;5116832;28;20050;-35
2021/08/14 05:32:42;;;;;;;15.88;5.65;;;;;;;14.89;79.57;102120.09;5116765;28;20050;-35
2021/08/14 05:35:08;;;;;;;10.95;5.40;;;;;;;14.90;79.33;102110.88;5116963;28;20067;-35
2021/08/14 05:37:33;;;;;;;20.77;6.22;;;;;;;14.97;79.14;102114.31;5117282;28;20084;-35
2021/08/14 05:39:59;;;;;;;17.47;5.07;;;;;;;15.01;78.39;102107.38;5117156;28;20023;-37
2021/08/14 05:42:25;;;;;;;14.98;6.00;;;;;;;15.09;78.91;102109.78;5116849;28;20404;-36
2021/08/14 05:44:50;;;;;;;13.07;5.50;;;;;;;15.15;78.16;102092.50;5116863;28;20027;-37
2021/08/14 05:47:15;;;;;;;13.60;5.28;;;;;;;15.24;78.30;102108.53;5117373;28;20046;-36
2021/08/14 05:49:41;;;;;;;14.63;5.63;;;;;;;15.24;78.68;102103.09;5116652;28;20011;-36
2021/08/14 05:52:07;;;;;;;16.58;4.93;;;;;;;15.32;77.81;102100.00;5116923;28;20027;-36
2021/08/14 05:54:34;;;;;;;13.90;5.40;;;;;;;15.29;78.37;102108.69;5116857;28;20019;-37
2021/08/14 05:56:59;;;;;;;11.10;5.45;;;;;;;15.37;77.62;102116.50;5116784;28;20512;-37
2021/08/14 05:59:24;;;;;;;15.32;5.70;;;;;;;15.44;77.72;102107.19;5116424;28;20024;-36
2021/08/14 06:01:50;;;;;;;13.03;5.60;;;;;;;15.51;77.59;102109.78;5117341;28;20321;-37
2021/08/14 06:04:15;;;;;;;17.00;5.80;;;;;;;15.53;77.05;102110.41;5116326;27;20309;-37
2021/08/14 06:06:42;;;;;;;17.25;6.45;;;;;;;15.57;77.45;102117.06;5116640;28;20258;-36
2021/08/14 06:09:08;;;;;;;19.23;6.22;;;;;;;15.64;77.50;102119.69;5117080;28;20481;-37
2021/08/14 06:11:33;;;;;;;;;;;;;;;15.78;77.12;102121.16;5116994;28;20058;-35
2021/08/14 06:13:58;;;;;;;14.25;6.07;;;;;;;15.71;77.34;102114.97;5116625;28;19904;-36
2021/08/14 06:16:24;;;;;;;14.38;5.63;;;;;;;15.78;77.34;102123.06;5116723;27;20042;-36
2021/08/14 06:18:49;;;;;;;18.95;6.88;;;;;;;15.64;77.63;102117.81;5116140;28;20112;-37
2021/08/14 06:21:15;;;;;;;16.63;5.88;;;;;;;15.70;77.08;102105.13;5116169;28;20466;-36
2021/08/14 06:23:40;;;;;;;18.73;7.22;;;;;;;15.87;77.66;102121.66;5116525;28;20451;-36
2021/08/14 06:26:05;;;;;;;14.43;5.82;;;;;;;15.89;76.86;102109.41;5116118;28;20149;-36
2021/08/14 06:28:32;;;;;;;19.02;6.63;;;;;;;16.04;76.82;102117.16;5116171;28;20015;-36
2021/08/14 06:30:57;;;;;;;14.85;5.95;;;;;;;16.07;76.92;102116.69;5117016;28;20042;-36
2021/08/14 06:33:22;;;;;;;18.77;6.40;;;;;;;16.12;77.16;102124.97;5116660;28;20343;-36
2021/08/14 06:35:49;;;;;;;16.30;5.75;;;;;;;16.19;77.63;102131.13;5116834;28;20023;-37
2021/08/14 06:38:14;;;;;;;;;;;;;;;16.34;76.78;102129.84;5116037;27;20501;-38
2021/08/14 06:40:39;;;;;;;17.73;6.35;;;;;;;16.17;77.21;102130.56;5115983;28;19908;-37
2021/08/14 06:43:05;;;;;;;18.35;6.63;;;;;;;16.19;77.49;102131.13;5115854;28;20349;-35
2021/08/14 06:45:30;;;;;;;15.38;6.07;;;;;;;16.28;77.53;102136.25;5116146;28;20436;-36
2021/08/14 06:47:55;;;;;;;16.90;6.72;;;;;;;16.32;77.18;102134.72;5115764;28;20081;-36
2021/08/14 06:50:21;;;;;;;16.27;6.75;;;;;;;16.32;77.32;102129.25;5116333;27;20348;-40
2021/08/14 06:52:46;;;;;;;16.77;6.20;;;;;;;16.41;77.14;102122.38;5115644;28;20027;-36
2021/08/14 06:55:11;;;;;;;;;;;;;;;16.64;76.74;102132.41;5116639;28;20024;-36
2021/08/14 06:57:37;;;;;;;20.10;7.45;;;;;;;16.56;76.78;102119.97;5116076;28;20363;-36
2021/08/14 07:00:04;;;;;;;;;;;;;;;16.75;76.26;102119.84;5115394;28;20019;-35
2021/08/14 07:02:29;;;;;;;22.40;8.15;;;;;;;16.62;76.93;102105.34;5115692;28;19956;-35
2021/08/14 07:04:54;;;;;;;24.65;8.27;;;;;;;16.64;76.68;102119.59;5114922;28;20024;-36
2021/08/14 07:07:20;;;;;;;;;;;;;;;16.80;77.13;102119.97;5115297;28;20521;-36
2021/08/14 07:09:45;;;;;;;28.52;7.93;;;;;;;16.75;77.61;102120.69;5114995;28;19903;-36
2021/08/14 07:12:11;;;;;;;;;;;;;;;16.88;76.47;102114.91;5115184;28;20027;-37
2021/08/14 07:14:36;;;;;;;20.08;8.23;;;;;;;16.81;77.15;102118.88;5115107;28;19961;-36
2021/08/14 07:17:02;;;;;;;21.25;8.13;;;;;;;16.82;77.54;102117.81;5115158;28;20046;-36
2021/08/14 07:19:28;;;;;;;22.08;8.77;;;;;;;16.87;77.07;102118.72;5115287;28;20454;-36
2021/08/14 07:21:53;;;;;;;27.95;9.00;;;;;;;16.92;77.06;102126.22;5114921;28;20016;-36
2021/08/14 07:24:19;;;;;;;21.27;8.68;;;;;;;16.88;77.56;102094.97;5114634;28;20027;-36
2021/08/14 07:26:44;;;;;;;;;;;;;;;17.16;76.63;102119.59;5114793;28;20310;-36
2021/08/14 07:29:09;;;;;;;26.15;9.38;;;;;;;17.08;77.21;102117.25;5114684;28;19926;-36
2021/08/14 07:31:35;;;;;;;32.17;11.27;;;;;;;17.23;77.35;102123.03;5114322;28;20035;-36
2021/08/14 07:34:00;;;;;;;;;;;;;;;17.37;76.39;102122.69;5114636;28;20024;-34
2021/08/14 07:36:25;;;;;;;27.65;10.45;;;;;;;17.36;76.77;102119.13;5114705;28;19998;-35
2021/08/14 07:38:51;;;;;;;;;;;;;;;17.51;76.36;102119.41;5114454;28;20015;-35
2021/08/14 07:41:16;;;;;;;26.02;8.88;;;;;;;17.50;76.39;102116.94;5114640;28;19907;-35
2021/08/14 07:43:42;;;;;;;;;;;;;;;17.64;76.36;102131.13;5114621;28;20133;-36
2021/08/14 07:46:09;;;;;;;31.98;10.85;;;;;;;17.51;76.37;102124.06;5114029;28;20428;-35
2021/08/14 07:48:35;;;;;;;31.35;10.73;;;;;;;17.61;76.48;102120.66;5113874;28;20447;-35
2021/08/14 07:51:01;;;;;;;28.98;10.90;;;;;;;17.71;76.79;102121.69;5114252;28;20031;-35
2021/08/14 07:53:27;;;;;;;29.30;10.65;;;;;;;17.72;76.31;102112.41;5113951;28;20031;-35
2021/08/14 07:55:53;;;;;;;29.65;12.13;;;;;;;17.82;76.01;102117.25;5114049;28;20320;-36
2021/08/14 07:58:18;;;;;;;;;;;;;;;17.97;75.62;102124.88;5114352;28;20047;-36
2021/08/14 08:00:44;;;;;;;26.13;11.43;;;;;;;17.87;75.26;102109.13;5114527;28;19904;-36
2021/08/14 08:03:10;;;;;;;;;;;;;;;18.09;75.28;102122.84;5114084;28;20115;-36
2021/08/14 08:05:35;;;;;;;29.13;12.25;;;;;;;18.03;75.13;102123.88;5114465;28;20007;-39
2021/08/14 08:08:05;;;;;;;;;;;;;;;18.16;74.87;102118.06;5114245;28;20019;-37
2021/08/14 08:10:31;;;;;;;27.17;12.07;;;;;;;18.11;74.01;102117.97;5113425;28;20263;-36
2021/08/14 08:12:56;;;;;;;23.63;10.63;;;;;;;18.14;73.55;102108.41;5113772;28;20020;-36
2021/08/14 08:15:22;;;;;;;;;;;;;;;18.32;73.96;102119.09;5113497;27;20459;-36
2021/08/14 08:17:47;;;;;;;26.50;11.77;;;;;;;18.33;72.62;102118.00;5113710;28;19915;-36
2021/08/14 08:20:14;;;;;;;26.42;11.82;;;;;;;18.32;72.36;102107.31;5113734;28;20073;-36
2021/08/14 08:22:40;;;;;;;28.38;12.10;;;;;;;18.49;72.55;102119.06;5113718;28;20020;-36
2021/08/14 08:25:06;;;;;;;;;;;;;;;18.63;73.08;102111.28;5114568;28;20092;-36
2021/08/14 08:27:31;;;;;;;27.20;11.70;;;;;;;18.72;72.33;102112.53;5113607;28;20351;-36
2021/08/14 08:29:57;;;;;;;;;;;;;;;18.88;73.00;102110.81;5114422;28;20024;-36
2021/08/14 08:32:22;;;;;;;26.23;12.77;;;;;;;18.86;71.52;102113.00;5113558;28;19953;-37
2021/08/14 08:34:47;;;;;;;;;;;;;;;19.04;71.77;102112.66;5112943;28;20330;-36
2021/08/14 08:37:13;;;;;;;33.47;13.87;;;;;;;18.94;71.60;102096.09;5112942;28;19912;-36
2021/08/14 08:39:38;;;;;;;;;;;;;;;19.15;71.76;102105.38;5114543;28;20315;-37
2021/08/14 08:42:06;;;;;;;26.52;14.23;;;;;;;19.21;70.26;102109.81;5113992;28;19950;-34
2021/08/14 08:44:34;;;;;;;30.75;17.65;;;;;;;19.12;70.98;102109.44;5112598;28;20023;-36
2021/08/14 08:47:00;;;;;;;32.40;17.35;;;;;;;19.22;70.49;102105.97;5112319;28;20050;-35
2021/08/14 08:49:26;;;;;;;;;;;;;;;19.40;70.67;102107.53;5113702;28;20024;-34
2021/08/14 08:51:53;;;;;;;33.38;19.85;;;;;;;19.18;70.96;102078.28;5113592;28;19903;-34
2021/08/14 08:54:19;;;;;;;38.15;21.30;;;;;;;19.32;69.17;102094.28;5113255;28;20027;-34
2021/08/14 08:56:46;;;;;;;33.60;19.98;;;;;;;19.43;69.39;102104.28;5113971;28;20031;-34
2021/08/14 08:59:12;;;;;;;46.40;23.20;;;;;;;19.36;69.48;102103.66;5113300;28;20026;-34
2021/08/14 09:01:40;;;;;;;;;;;;;;;19.54;69.51;102095.88;5114153;28;20024;-35
2021/08/14 09:04:22;;;;;;;36.28;22.13;;;;;;;19.60;69.21;102101.44;5113620;28;20106;-35
2021/08/14 09:06:47;;;;;;;33.67;21.83;;;;;;;19.68;67.82;102098.22;5113338;28;20027;-35
2021/08/14 09:09:13;;;;;;;;;;;;;;;19.89;69.08;102108.28;5113628;28;20363;-35
2021/08/14 09:11:52;;;;;;;31.50;21.13;;;;;;;19.92;66.64;102106.94;5112836;28;20352;-35
2021/08/14 09:14:18;;;;;;;30.48;21.83;;;;;;;19.93;64.94;102105.84;5113320;28;20038;-35
2021/08/14 09:16:44;;;;;;;33.45;22.27;;;;;;;19.96;65.08;102106.16;5113352;28;20024;-35
2021/08/14 09:19:19;;;;;;;;;;;;;;;20.21;66.38;102116.47;5113414;28;20042;-35
2021/08/14 09:21:44;;;;;;;34.90;23.30;;;;;;;20.06;64.50;102108.13;5113082;28;19907;-35
2021/08/14 09:24:28;;;;;;;;;;;;;;;20.28;66.38;102105.25;5113803;28;20085;-35
2021/08/14 09:26:53;;;;;;;39.78;23.88;;;;;;;20.28;64.52;102095.06;5112337;28;20336;-36
2021/08/14 09:29:27;;;;;;;;;;;;;;;20.54;64.31;102108.97;5113321;28;20031;-36
2021/08/14 09:31:54;;;;;;;35.28;24.25;;;;;;;20.29;63.65;102090.41;5111277;28;19937;-36
2021/08/14 09:34:22;;;;;;;35.88;24.63;;;;;;;20.49;64.69;102106.22;5112749;28;20016;-36
2021/08/14 09:36:59;;;;;;;38.92;26.90;;;;;;;20.64;64.75;102109.03;5112618;28;20031;-36
2021/08/14 09:39:25;;;;;;;39.72;29.05;;;;;;;20.78;63.10;102107.44;5112774;28;20023;-36
2021/08/14 09:42:00;;;;;;;;;;;;;;;20.94;64.54;102107.50;5113359;28;20092;-36
2021/08/14 09:44:25;;;;;;;43.25;29.83;;;;;;;20.72;63.66;102097.53;5113254;28;19908;-35
2021/08/14 09:46:50;;;;;;;;;;;;;;;21.08;64.61;102109.47;5113551;28;20035;-36
2021/08/14 09:49:15;;;;;;;46.67;30.87;;;;;;;20.93;63.08;102105.84;5114289;28;19904;-36
2021/08/14 09:51:41;;;;;;;;;;;;;;;21.20;64.07;102111.97;5117184;28;20253;-36
2021/08/14 09:54:06;;;;;;;44.67;31.60;;;;;;;20.96;62.73;102086.88;5116225;28;19908;-36
2021/08/14 09:56:34;;;;;;;;;;;;;;;21.34;63.64;102102.13;5116860;28;20250;-35
2021/08/14 09:59:01;;;;;;;39.78;30.48;;;;;;;21.17;62.31;102104.25;5116788;28;20263;-36
2021/08/14 10:01:29;;;;;;;44.58;32.35;;;;;;;21.01;63.12;102094.31;5117030;28;20034;-36
2021/08/14 10:03:55;;;;;;;44.78;31.25;;;;;;;21.08;63.07;102092.13;5115858;28;20019;-36
2021/08/14 10:06:22;;;;;;;43.22;32.15;;;;;;;21.26;62.94;102102.63;5116594;28;20032;-36
2021/08/14 10:08:47;;;;;;;41.55;31.58;;;;;;;21.37;61.95;102102.66;5117216;28;20031;-36
2021/08/14 10:11:13;;;;;;;;;;;;;;;21.69;63.14;102095.00;5116835;28;20024;-36
2021/08/14 10:13:44;;;;;;;41.05;30.90;;;;;;;21.81;62.63;102098.31;5115761;28;20296;-36
2021/08/14 10:16:11;;;;;;;34.65;27.52;;;;;;;21.83;62.39;102100.78;5116226;28;20023;-36
2021/08/14 10:18:39;;;;;;;39.40;26.98;;;;;;;21.78;62.55;102090.59;5115954;28;20046;-36
2021/08/14 10:21:04;;;;;;;38.60;29.52;;;;;;;21.87;61.93;102101.06;5116003;28;20016;-36
2021/08/14 10:23:30;;;;;;;41.72;28.95;;;;;;;21.91;61.64;102105.75;5115998;28;20400;-36
2021/08/14 10:26:00;;;;;;;38.50;28.58;;;;;;;21.88;62.12;102110.97;5115962;28;20465;-36
2021/08/14 10:28:44;;;;;;;122.63;31.85;;;;;;;21.87;63.19;102107.38;5115752;28;20035;-36
2021/08/14 10:31:29;;;;;;;120.00;31.58;;;;;;;21.80;63.30;102115.09;5116135;28;20036;-37
2021/08/14 10:34:10;;;;;;;119.95;32.92;;;;;;;21.67;63.32;102099.09;5115567;28;20448;-37
2021/08/14 10:36:35;;;;;;;47.25;25.95;;;;;;;21.70;63.23;102118.66;5116421;28;20069;-37
2021/08/14 10:39:16;;;;;;;55.08;26.05;;;;;;;21.97;63.29;102112.88;5115774;27;20023;-37
2021/08/14 10:41:43;;;;;;;49.80;24.58;;;;;;;22.24;62.27;102098.81;5116570;28;20026;-37
2021/08/14 10:44:09;;;;;;;34.15;22.73;;;;;;;22.42;62.05;102099.31;5116112;28;20027;-37
2021/08/14 10:46:37;;;;;;;38.90;24.02;;;;;;;22.48;61.29;102106.47;5116032;28;20355;-36
2021/08/14 10:49:04;;;;;;;36.70;24.60;;;;;;;22.50;61.46;102112.53;5115200;28;20058;-36
2021/08/14 10:51:48;;;;;;;34.70;23.30;;;;;;;22.64;61.54;102108.03;5115399;28;20026;-36
2021/08/14 10:54:15;;;;;;;35.42;20.02;;;;;;;22.67;59.95;102104.72;5115596;27;20106;-36
2021/08/14 10:56:51;;;;;;;32.97;21.85;;;;;;;22.61;61.16;102103.13;5115364;28;20088;-36
2021/08/14 10:59:35;;;;;;;29.23;19.77;;;;;;;22.75;60.62;102101.41;5115325;28;20397;-36
2021/08/14 11:02:01;;;;;;;28.73;20.02;;;;;;;22.54;60.05;102097.06;5115106;28;20015;-37
2021/08/14 11:04:55;;;;;;;32.50;19.27;;;;;;;22.60;60.91;102093.19;5115068;27;20103;-35
2021/08/14 11:07:20;;;;;;;32.08;18.63;;;;;;;22.61;59.47;102076.38;5115631;28;20023;-36
2021/08/14 11:09:52;;;;;;;25.42;18.08;;;;;;;22.96;60.06;102095.81;5115877;28;20031;-36
2021/08/14 11:12:34;;;;;;;31.98;18.95;;;;;;;23.10;59.41;102094.91;5115899;28;20044;-36
2021/08/14 11:15:22;;;;;;;32.72;21.60;;;;;;;23.10;59.79;102097.66;5115288;28;20024;-36
2021/08/14 11:17:53;;;;;;;36.65;22.02;;;;;;;23.08;58.92;102090.75;5115790;28;20095;-36
2021/08/14 11:20:18;;;;;;;30.65;21.10;;;;;;;23.15;59.02;102084.94;5114572;28;20024;-36
2021/08/14 11:22:45;;;;;;;36.63;24.77;;;;;;;23.12;59.20;102076.09;5115423;28;20341;-36
2021/08/14 11:25:22;;;;;;;36.33;24.10;;;;;;;23.35;58.92;102082.03;5114652;28;20284;-36